PWSweather.com
Personal Weather Stations
Station Observations
KOHAVON11
Long Road Station, Avon, OH 44011

Long Road StationAvon, OH 44011

Lat: 41.437, Lon: -82.0477

Elevation: 686

Station Type: Davis Vantage Pro2

http://www.avon-weather.com

Latest ConditionsUpdated 12:33:11 PM EST Tuesday, Nov 12, 2019
Currently Today's Max Today's Min Today's Average
Temperature 25.9°F-3.4°C 31.7°F-0.2°C 25.4°F-3.7°C 27.7°F-2.4°C
Dew Point 16.0°F-8.9°C 28.6°F-1.9°C 16.0°F-8.9°C 23.4°F-4.8°C
Winds 6.0 mph NW9.7 kmh NW 16.0 mph -25.7 kmh - - 4.5 mph 7.2 kmh
Wind Gusts 20.0 mph32.2 kmh 25.0 mph40.2 kmh - -
Humidity 66% 88% 66% 84%
Pressure 30.26 in1024.7 mb 30.27 in1025.1 mb 30.02 in1016.6 mb -
Hour Temp Dew Point Humidity Winds Wind Gusts Pressure Precip Precip Rate Daily Precip Total
12:33 PM 25.9°F-3.4°C 16.0°F-8.9°C 66% 6.0 mph NW9.7 kmh NW 20.0 mph32.2 kmh 30.26 in1024.7 mb 0.00 in0.0 mm 0.00 in0.0 mm 0.00 in0.0 mm
12:28 PM 26.0°F-3.3°C 16.4°F-8.7°C 67% 6.0 mph NE9.7 kmh NE 20.0 mph32.2 kmh 30.27 in1025.1 mb 0.00 in0.0 mm 0.00 in0.0 mm 0.00 in0.0 mm
12:23 PM 26.0°F-3.3°C 16.4°F-8.7°C 67% 6.0 mph NNE9.7 kmh NNE 16.0 mph25.7 kmh 30.26 in1024.7 mb 0.00 in0.0 mm 0.00 in0.0 mm 0.00 in0.0 mm
12:18 PM 26.0°F-3.3°C 16.4°F-8.7°C 67% 8.0 mph NW12.9 kmh NW 16.0 mph25.7 kmh 30.26 in1024.7 mb 0.00 in0.0 mm 0.00 in0.0 mm 0.00 in0.0 mm
12:06 PM 26.4°F-3.1°C 16.8°F-8.4°C 67% 6.0 mph WNW9.7 kmh WNW 15.0 mph24.1 kmh 30.26 in1024.7 mb 0.00 in0.0 mm 0.00 in0.0 mm 0.00 in0.0 mm
12:01 PM 26.5°F-3.1°C 17.3°F-8.2°C 68% 10.0 mph NW16.1 kmh NW 15.0 mph24.1 kmh 30.26 in1024.7 mb 0.00 in0.0 mm 0.00 in0.0 mm 0.00 in0.0 mm
11:56 AM 26.4°F-3.1°C 17.2°F-8.2°C 68% 5.0 mph NW8.0 kmh NW 15.0 mph24.1 kmh 30.26 in1024.7 mb 0.00 in0.0 mm 0.00 in0.0 mm 0.00 in0.0 mm
11:51 AM 26.3°F-3.2°C 17.1°F-8.3°C 68% 4.0 mph NW6.4 kmh NW 18.0 mph29.0 kmh 30.26 in1024.7 mb 0.00 in0.0 mm 0.00 in0.0 mm 0.00 in0.0 mm
11:46 AM 26.0°F-3.3°C 16.8°F-8.4°C 68% 6.0 mph NW9.7 kmh NW 18.0 mph29.0 kmh 30.26 in1024.7 mb 0.00 in0.0 mm 0.00 in0.0 mm 0.00 in0.0 mm
11:41 AM 25.9°F-3.4°C 16.7°F-8.5°C 68% 9.0 mph W14.5 kmh W 18.0 mph29.0 kmh 30.26 in1024.7 mb 0.00 in0.0 mm 0.00 in0.0 mm 0.00 in0.0 mm
11:36 AM 25.9°F-3.4°C 16.7°F-8.5°C 68% 6.0 mph NW9.7 kmh NW 18.0 mph29.0 kmh 30.26 in1024.7 mb 0.00 in0.0 mm 0.00 in0.0 mm 0.00 in0.0 mm
11:31 AM 26.1°F-3.3°C 17.2°F-8.2°C 69% 14.0 mph W22.5 kmh W 17.0 mph27.4 kmh 30.26 in1024.7 mb 0.00 in0.0 mm 0.00 in0.0 mm 0.00 in0.0 mm
11:26 AM 26.3°F-3.2°C 17.8°F-7.9°C 70% 8.0 mph NW12.9 kmh NW 17.0 mph27.4 kmh 30.26 in1024.7 mb 0.00 in0.0 mm 0.00 in0.0 mm 0.00 in0.0 mm
11:21 AM 26.3°F-3.2°C 17.8°F-7.9°C 70% 9.0 mph NE14.5 kmh NE 17.0 mph27.4 kmh 30.25 in1024.4 mb 0.00 in0.0 mm 0.00 in0.0 mm 0.00 in0.0 mm
11:16 AM 26.3°F-3.2°C 17.8°F-7.9°C 70% 9.0 mph WNW14.5 kmh WNW 17.0 mph27.4 kmh 30.25 in1024.4 mb 0.00 in0.0 mm 0.00 in0.0 mm 0.00 in0.0 mm
11:11 AM 26.4°F-3.1°C 18.2°F-7.7°C 71% 11.0 mph WNW17.7 kmh WNW 17.0 mph27.4 kmh 30.25 in1024.4 mb 0.00 in0.0 mm 0.00 in0.0 mm 0.00 in0.0 mm
11:06 AM 26.6°F-3.0°C 18.4°F-7.6°C 71% 15.0 mph NW24.1 kmh NW 17.0 mph27.4 kmh 30.25 in1024.4 mb 0.00 in0.0 mm 0.00 in0.0 mm 0.00 in0.0 mm
11:01 AM 26.6°F-3.0°C 18.4°F-7.6°C 71% 5.0 mph NW8.0 kmh NW 16.0 mph25.7 kmh 30.25 in1024.4 mb 0.00 in0.0 mm 0.00 in0.0 mm 0.00 in0.0 mm
10:56 AM 26.6°F-3.0°C 18.7°F-7.4°C 72% 8.0 mph NE12.9 kmh NE 16.0 mph25.7 kmh 30.25 in1024.4 mb 0.00 in0.0 mm 0.00 in0.0 mm 0.00 in0.0 mm
10:51 AM 26.7°F-2.9°C 19.2°F-7.1°C 73% 13.0 mph W20.9 kmh W 13.0 mph20.9 kmh 30.24 in1024.0 mb 0.00 in0.0 mm 0.00 in0.0 mm 0.00 in0.0 mm
10:46 AM 26.6°F-3.0°C 19.1°F-7.2°C 73% 5.0 mph NW8.0 kmh NW 19.0 mph30.6 kmh 30.25 in1024.4 mb 0.00 in0.0 mm 0.00 in0.0 mm 0.00 in0.0 mm
10:41 AM 26.6°F-3.0°C 19.1°F-7.2°C 73% 7.0 mph N11.3 kmh N 19.0 mph30.6 kmh 30.25 in1024.4 mb 0.00 in0.0 mm 0.00 in0.0 mm 0.00 in0.0 mm
10:36 AM 26.8°F-2.9°C 19.6°F-6.9°C 74% 5.0 mph NW8.0 kmh NW 20.0 mph32.2 kmh 30.24 in1024.0 mb 0.00 in0.0 mm 0.00 in0.0 mm 0.00 in0.0 mm
10:31 AM 27.0°F-2.8°C 19.8°F-6.8°C 74% 8.0 mph N12.9 kmh N 20.0 mph32.2 kmh 30.24 in1024.0 mb 0.00 in0.0 mm 0.00 in0.0 mm 0.00 in0.0 mm
10:26 AM 27.1°F-2.7°C 19.9°F-6.7°C 74% 8.0 mph NW12.9 kmh NW 20.0 mph32.2 kmh 30.24 in1024.0 mb 0.00 in0.0 mm 0.00 in0.0 mm 0.00 in0.0 mm
10:21 AM 27.2°F-2.7°C 20.6°F-6.3°C 76% 5.0 mph WNW8.0 kmh WNW 20.0 mph32.2 kmh 30.23 in1023.7 mb 0.00 in0.0 mm 0.00 in0.0 mm 0.00 in0.0 mm
10:16 AM 27.0°F-2.8°C 20.7°F-6.3°C 77% 4.0 mph NE6.4 kmh NE 14.0 mph22.5 kmh 30.23 in1023.7 mb 0.00 in0.0 mm 0.00 in0.0 mm 0.00 in0.0 mm
10:11 AM 26.8°F-2.9°C 20.8°F-6.2°C 78% 8.0 mph NW12.9 kmh NW 15.0 mph24.1 kmh 30.23 in1023.7 mb 0.00 in0.0 mm 0.00 in0.0 mm 0.00 in0.0 mm
10:06 AM 26.5°F-3.1°C 20.9°F-6.2°C 79% 6.0 mph NNW9.7 kmh NNW 15.0 mph24.1 kmh 30.23 in1023.7 mb 0.00 in0.0 mm 0.00 in0.0 mm 0.00 in0.0 mm
10:01 AM 26.4°F-3.1°C 20.8°F-6.2°C 79% 9.0 mph WNW14.5 kmh WNW 25.0 mph40.2 kmh 30.23 in1023.7 mb 0.00 in0.0 mm 0.00 in0.0 mm 0.00 in0.0 mm
09:56 AM 26.3°F-3.2°C 21.0°F-6.1°C 80% 2.0 mph NW3.2 kmh NW 25.0 mph40.2 kmh 30.23 in1023.7 mb 0.00 in0.0 mm 0.00 in0.0 mm 0.00 in0.0 mm
09:51 AM 26.3°F-3.2°C 21.0°F-6.1°C 80% 2.0 mph NW3.2 kmh NW 25.0 mph40.2 kmh 30.22 in1023.4 mb 0.00 in0.0 mm 0.00 in0.0 mm 0.00 in0.0 mm
09:46 AM 26.5°F-3.1°C 21.5°F-5.8°C 81% 16.0 mph WNW25.7 kmh WNW 25.0 mph40.2 kmh 30.22 in1023.4 mb 0.00 in0.0 mm 0.00 in0.0 mm 0.00 in0.0 mm
09:41 AM 26.4°F-3.1°C 21.4°F-5.9°C 81% 3.0 mph NW4.8 kmh NW 15.0 mph24.1 kmh 30.22 in1023.4 mb 0.00 in0.0 mm 0.00 in0.0 mm 0.00 in0.0 mm
09:36 AM 26.3°F-3.2°C 21.6°F-5.8°C 82% 6.0 mph WNW9.7 kmh WNW 15.0 mph24.1 kmh 30.22 in1023.4 mb 0.00 in0.0 mm 0.00 in0.0 mm 0.00 in0.0 mm
09:31 AM 26.3°F-3.2°C 21.6°F-5.8°C 82% 3.0 mph NW4.8 kmh NW 15.0 mph24.1 kmh 30.22 in1023.4 mb 0.00 in0.0 mm 0.00 in0.0 mm 0.00 in0.0 mm
09:26 AM 26.3°F-3.2°C 21.6°F-5.8°C 82% 9.0 mph NW14.5 kmh NW 11.0 mph17.7 kmh 30.22 in1023.4 mb 0.00 in0.0 mm 0.00 in0.0 mm 0.00 in0.0 mm
09:21 AM 26.2°F-3.2°C 21.5°F-5.8°C 82% 4.0 mph NW6.4 kmh NW 12.0 mph19.3 kmh 30.22 in1023.4 mb 0.00 in0.0 mm 0.00 in0.0 mm 0.00 in0.0 mm
09:16 AM 26.4°F-3.1°C 22.0°F-5.6°C 83% 5.0 mph NW8.0 kmh NW 12.0 mph19.3 kmh 30.21 in1023.0 mb 0.00 in0.0 mm 0.00 in0.0 mm 0.00 in0.0 mm
09:11 AM 26.5°F-3.1°C 22.1°F-5.5°C 83% 8.0 mph NNE12.9 kmh NNE 13.0 mph20.9 kmh 30.21 in1023.0 mb 0.00 in0.0 mm 0.00 in0.0 mm 0.00 in0.0 mm
09:06 AM 26.4°F-3.1°C 22.3°F-5.4°C 84% 12.0 mph NE19.3 kmh NE 13.0 mph20.9 kmh 30.21 in1023.0 mb 0.00 in0.0 mm 0.00 in0.0 mm 0.00 in0.0 mm
09:01 AM 26.1°F-3.3°C 22.2°F-5.4°C 85% 9.0 mph NNW14.5 kmh NNW 19.0 mph30.6 kmh 30.21 in1023.0 mb 0.00 in0.0 mm 0.00 in0.0 mm 0.00 in0.0 mm
08:56 AM 25.6°F-3.6°C 21.8°F-5.7°C 85% 4.0 mph NNW6.4 kmh NNW 19.0 mph30.6 kmh 30.21 in1023.0 mb 0.00 in0.0 mm 0.00 in0.0 mm 0.00 in0.0 mm
08:51 AM 25.5°F-3.6°C 21.7°F-5.7°C 85% 7.0 mph NW11.3 kmh NW 19.0 mph30.6 kmh 30.21 in1023.0 mb 0.00 in0.0 mm 0.00 in0.0 mm 0.00 in0.0 mm
08:46 AM 25.5°F-3.6°C 21.9°F-5.6°C 86% 4.0 mph NNW6.4 kmh NNW 19.0 mph30.6 kmh 30.21 in1023.0 mb 0.00 in0.0 mm 0.00 in0.0 mm 0.00 in0.0 mm
08:41 AM 25.4°F-3.7°C 21.8°F-5.7°C 86% 13.0 mph NNE20.9 kmh NNE 15.0 mph24.1 kmh 30.20 in1022.7 mb 0.00 in0.0 mm 0.00 in0.0 mm 0.00 in0.0 mm
08:36 AM 25.4°F-3.7°C 21.8°F-5.7°C 86% 8.0 mph NW12.9 kmh NW 15.0 mph24.1 kmh 30.20 in1022.7 mb 0.00 in0.0 mm 0.00 in0.0 mm 0.00 in0.0 mm
08:31 AM 25.5°F-3.6°C 21.9°F-5.6°C 86% 9.0 mph NW14.5 kmh NW 15.0 mph24.1 kmh 30.20 in1022.7 mb 0.00 in0.0 mm 0.00 in0.0 mm 0.00 in0.0 mm
08:26 AM 25.7°F-3.5°C 22.1°F-5.5°C 86% 5.0 mph WNW8.0 kmh WNW 13.0 mph20.9 kmh 30.20 in1022.7 mb 0.00 in0.0 mm 0.00 in0.0 mm 0.00 in0.0 mm
08:21 AM 25.7°F-3.5°C 22.1°F-5.5°C 86% 6.0 mph N9.7 kmh N 15.0 mph24.1 kmh 30.19 in1022.4 mb 0.00 in0.0 mm 0.00 in0.0 mm 0.00 in0.0 mm
08:16 AM 25.6°F-3.6°C 22.0°F-5.6°C 86% 4.0 mph NW6.4 kmh NW 15.0 mph24.1 kmh 30.19 in1022.4 mb 0.00 in0.0 mm 0.00 in0.0 mm 0.00 in0.0 mm
08:11 AM 25.6°F-3.6°C 22.3°F-5.4°C 87% 11.0 mph NW17.7 kmh NW 15.0 mph24.1 kmh 30.18 in1022.0 mb 0.00 in0.0 mm 0.00 in0.0 mm 0.00 in0.0 mm
08:06 AM 25.7°F-3.5°C 22.4°F-5.3°C 87% 15.0 mph NW24.1 kmh NW 15.0 mph24.1 kmh 30.18 in1022.0 mb 0.00 in0.0 mm 0.00 in0.0 mm 0.00 in0.0 mm
08:01 AM 25.8°F-3.4°C 22.5°F-5.3°C 87% 12.0 mph NW19.3 kmh NW 12.0 mph19.3 kmh 30.18 in1022.0 mb 0.00 in0.0 mm 0.00 in0.0 mm 0.00 in0.0 mm
07:56 AM 25.8°F-3.4°C 22.5°F-5.3°C 87% 9.0 mph N14.5 kmh N 11.0 mph17.7 kmh 30.17 in1021.7 mb 0.00 in0.0 mm 0.00 in0.0 mm 0.00 in0.0 mm
07:51 AM 25.9°F-3.4°C 22.6°F-5.2°C 87% 3.0 mph NW4.8 kmh NW 11.0 mph17.7 kmh 30.17 in1021.7 mb 0.00 in0.0 mm 0.00 in0.0 mm 0.00 in0.0 mm
07:46 AM 26.0°F-3.3°C 22.7°F-5.2°C 87% 4.0 mph NW6.4 kmh NW 7.0 mph11.3 kmh 30.17 in1021.7 mb 0.00 in0.0 mm 0.00 in0.0 mm 0.00 in0.0 mm
07:41 AM 26.1°F-3.3°C 22.8°F-5.1°C 87% 4.0 mph WNW6.4 kmh WNW 7.0 mph11.3 kmh 30.16 in1021.3 mb 0.00 in0.0 mm 0.00 in0.0 mm 0.00 in0.0 mm
07:36 AM 26.3°F-3.2°C 23.0°F-5.0°C 87% 3.0 mph NW4.8 kmh NW 12.0 mph19.3 kmh 30.16 in1021.3 mb 0.00 in0.0 mm 0.00 in0.0 mm 0.00 in0.0 mm
07:31 AM 26.4°F-3.1°C 23.1°F-4.9°C 87% 2.0 mph NW3.2 kmh NW 12.0 mph19.3 kmh 30.16 in1021.3 mb 0.00 in0.0 mm 0.00 in0.0 mm 0.00 in0.0 mm
07:26 AM 26.5°F-3.1°C 23.2°F-4.9°C 87% 4.0 mph NW6.4 kmh NW 12.0 mph19.3 kmh 30.16 in1021.3 mb 0.00 in0.0 mm 0.00 in0.0 mm 0.00 in0.0 mm
07:21 AM 26.5°F-3.1°C 23.2°F-4.9°C 87% 1.0 mph NW1.6 kmh NW 12.0 mph19.3 kmh 30.16 in1021.3 mb 0.00 in0.0 mm 0.00 in0.0 mm 0.00 in0.0 mm
07:16 AM 26.6°F-3.0°C 23.3°F-4.8°C 87% 4.0 mph N6.4 kmh N 9.0 mph14.5 kmh 30.15 in1021.0 mb 0.00 in0.0 mm 0.00 in0.0 mm 0.00 in0.0 mm
07:11 AM 26.7°F-2.9°C 23.4°F-4.8°C 87% Calm Calm 9.0 mph14.5 kmh 30.15 in1021.0 mb 0.00 in0.0 mm 0.00 in0.0 mm 0.00 in0.0 mm
07:06 AM 26.8°F-2.9°C 23.5°F-4.7°C 87% 3.0 mph W4.8 kmh W 9.0 mph14.5 kmh 30.15 in1021.0 mb 0.00 in0.0 mm 0.00 in0.0 mm 0.00 in0.0 mm
07:01 AM 26.9°F-2.8°C 23.6°F-4.7°C 87% 5.0 mph NW8.0 kmh NW 9.0 mph14.5 kmh 30.15 in1021.0 mb 0.00 in0.0 mm 0.00 in0.0 mm 0.00 in0.0 mm
06:56 AM 27.0°F-2.8°C 23.7°F-4.6°C 87% 1.0 mph WNW1.6 kmh WNW 7.0 mph11.3 kmh 30.14 in1020.7 mb 0.00 in0.0 mm 0.00 in0.0 mm 0.00 in0.0 mm
06:51 AM 27.0°F-2.8°C 23.7°F-4.6°C 87% 4.0 mph W6.4 kmh W 11.0 mph17.7 kmh 30.14 in1020.7 mb 0.00 in0.0 mm 0.00 in0.0 mm 0.00 in0.0 mm
06:46 AM 27.0°F-2.8°C 23.7°F-4.6°C 87% 5.0 mph NW8.0 kmh NW 11.0 mph17.7 kmh 30.14 in1020.7 mb 0.00 in0.0 mm 0.00 in0.0 mm 0.00 in0.0 mm
06:41 AM 27.0°F-2.8°C 23.7°F-4.6°C 87% 2.0 mph NW3.2 kmh NW 11.0 mph17.7 kmh 30.14 in1020.7 mb 0.00 in0.0 mm 0.00 in0.0 mm 0.00 in0.0 mm
06:36 AM 27.1°F-2.7°C 23.8°F-4.6°C 87% 4.0 mph NW6.4 kmh NW 11.0 mph17.7 kmh 30.14 in1020.7 mb 0.00 in0.0 mm 0.00 in0.0 mm 0.00 in0.0 mm
06:31 AM 27.2°F-2.7°C 23.9°F-4.5°C 87% 2.0 mph NW3.2 kmh NW 7.0 mph11.3 kmh 30.13 in1020.3 mb 0.00 in0.0 mm 0.00 in0.0 mm 0.00 in0.0 mm
06:26 AM 27.3°F-2.6°C 24.0°F-4.4°C 87% 4.0 mph NW6.4 kmh NW 6.0 mph9.7 kmh 30.13 in1020.3 mb 0.00 in0.0 mm 0.00 in0.0 mm 0.00 in0.0 mm
06:21 AM 27.2°F-2.7°C 23.9°F-4.5°C 87% 3.0 mph WNW4.8 kmh WNW 6.0 mph9.7 kmh 30.13 in1020.3 mb 0.00 in0.0 mm 0.00 in0.0 mm 0.00 in0.0 mm
06:16 AM 27.3°F-2.6°C 24.0°F-4.4°C 87% 5.0 mph NE8.0 kmh NE 7.0 mph11.3 kmh 30.13 in1020.3 mb 0.00 in0.0 mm 0.00 in0.0 mm 0.00 in0.0 mm
06:11 AM 27.3°F-2.6°C 24.0°F-4.4°C 87% 3.0 mph 4.8 kmh 7.0 mph11.3 kmh 30.12 in1020.0 mb 0.00 in0.0 mm 0.00 in0.0 mm 0.00 in0.0 mm
06:06 AM 27.3°F-2.6°C 24.0°F-4.4°C 87% 5.0 mph WNW8.0 kmh WNW 7.0 mph11.3 kmh 30.12 in1020.0 mb 0.00 in0.0 mm 0.00 in0.0 mm 0.00 in0.0 mm
06:01 AM 27.3°F-2.6°C 24.0°F-4.4°C 87% 4.0 mph WSW6.4 kmh WSW 7.0 mph11.3 kmh 30.12 in1020.0 mb 0.00 in0.0 mm 0.00 in0.0 mm 0.00 in0.0 mm
05:56 AM 27.3°F-2.6°C 24.0°F-4.4°C 87% 2.0 mph N3.2 kmh N 6.0 mph9.7 kmh 30.12 in1020.0 mb 0.00 in0.0 mm 0.00 in0.0 mm 0.00 in0.0 mm
05:51 AM 27.4°F-2.6°C 24.1°F-4.4°C 87% 2.0 mph NE3.2 kmh NE 7.0 mph11.3 kmh 30.12 in1020.0 mb 0.00 in0.0 mm 0.00 in0.0 mm 0.00 in0.0 mm
05:46 AM 27.5°F-2.5°C 24.5°F-4.2°C 88% 3.0 mph NW4.8 kmh NW 7.0 mph11.3 kmh 30.12 in1020.0 mb 0.00 in0.0 mm 0.00 in0.0 mm 0.00 in0.0 mm
05:41 AM 27.5°F-2.5°C 24.5°F-4.2°C 88% 1.0 mph NNW1.6 kmh NNW 7.0 mph11.3 kmh 30.11 in1019.6 mb 0.00 in0.0 mm 0.00 in0.0 mm 0.00 in0.0 mm
05:36 AM 27.6°F-2.4°C 24.6°F-4.1°C 88% 2.0 mph N3.2 kmh N 7.0 mph11.3 kmh 30.11 in1019.6 mb 0.00 in0.0 mm 0.00 in0.0 mm 0.00 in0.0 mm
05:31 AM 27.7°F-2.4°C 24.7°F-4.1°C 88% 1.0 mph N1.6 kmh N 6.0 mph9.7 kmh 30.11 in1019.6 mb 0.00 in0.0 mm 0.00 in0.0 mm 0.00 in0.0 mm
05:26 AM 27.7°F-2.4°C 24.7°F-4.1°C 88% 1.0 mph NW1.6 kmh NW 5.0 mph8.0 kmh 30.11 in1019.6 mb 0.00 in0.0 mm 0.00 in0.0 mm 0.00 in0.0 mm
05:21 AM 27.8°F-2.3°C 24.8°F-4.0°C 88% 2.0 mph WNW3.2 kmh WNW 5.0 mph8.0 kmh 30.11 in1019.6 mb 0.00 in0.0 mm 0.00 in0.0 mm 0.00 in0.0 mm
05:16 AM 27.8°F-2.3°C 24.8°F-4.0°C 88% 1.0 mph N1.6 kmh N 11.0 mph17.7 kmh 30.11 in1019.6 mb 0.00 in0.0 mm 0.00 in0.0 mm 0.00 in0.0 mm
05:11 AM 27.9°F-2.3°C 24.9°F-3.9°C 88% 4.0 mph 6.4 kmh 11.0 mph17.7 kmh 30.11 in1019.6 mb 0.00 in0.0 mm 0.00 in0.0 mm 0.00 in0.0 mm
05:06 AM 27.9°F-2.3°C 24.9°F-3.9°C 88% 1.0 mph N1.6 kmh N 11.0 mph17.7 kmh 30.11 in1019.6 mb 0.00 in0.0 mm 0.00 in0.0 mm 0.00 in0.0 mm
05:01 AM 27.9°F-2.3°C 24.9°F-3.9°C 88% 1.0 mph N1.6 kmh N 11.0 mph17.7 kmh 30.11 in1019.6 mb 0.00 in0.0 mm 0.00 in0.0 mm 0.00 in0.0 mm
04:56 AM 28.0°F-2.2°C 25.0°F-3.9°C 88% 1.0 mph NW1.6 kmh NW 9.0 mph14.5 kmh 30.10 in1019.3 mb 0.00 in0.0 mm 0.00 in0.0 mm 0.00 in0.0 mm
04:51 AM 28.0°F-2.2°C 25.0°F-3.9°C 88% 2.0 mph WNW3.2 kmh WNW 8.0 mph12.9 kmh 30.10 in1019.3 mb 0.00 in0.0 mm 0.00 in0.0 mm 0.00 in0.0 mm
04:46 AM 28.0°F-2.2°C 25.0°F-3.9°C 88% 1.0 mph 1.6 kmh 10.0 mph16.1 kmh 30.10 in1019.3 mb 0.00 in0.0 mm 0.00 in0.0 mm 0.00 in0.0 mm
04:41 AM 28.1°F-2.2°C 25.1°F-3.8°C 88% 2.0 mph NW3.2 kmh NW 10.0 mph16.1 kmh 30.09 in1019.0 mb 0.00 in0.0 mm 0.00 in0.0 mm 0.00 in0.0 mm
04:36 AM 28.1°F-2.2°C 25.1°F-3.8°C 88% 3.0 mph NNW4.8 kmh NNW 10.0 mph16.1 kmh 30.09 in1019.0 mb 0.00 in0.0 mm 0.00 in0.0 mm 0.00 in0.0 mm
04:31 AM 28.1°F-2.2°C 25.1°F-3.8°C 88% 3.0 mph N4.8 kmh N 10.0 mph16.1 kmh 30.09 in1019.0 mb 0.00 in0.0 mm 0.00 in0.0 mm 0.00 in0.0 mm
04:26 AM 28.1°F-2.2°C 25.1°F-3.8°C 88% 1.0 mph NNW1.6 kmh NNW 8.0 mph12.9 kmh 30.09 in1019.0 mb 0.00 in0.0 mm 0.00 in0.0 mm 0.00 in0.0 mm
04:21 AM 28.2°F-2.1°C 25.2°F-3.8°C 88% 3.0 mph NE4.8 kmh NE 8.0 mph12.9 kmh 30.09 in1019.0 mb 0.00 in0.0 mm 0.00 in0.0 mm 0.00 in0.0 mm
04:16 AM 28.2°F-2.1°C 25.2°F-3.8°C 88% 2.0 mph NE3.2 kmh NE 8.0 mph12.9 kmh 30.08 in1018.6 mb 0.00 in0.0 mm 0.00 in0.0 mm 0.00 in0.0 mm
04:11 AM 28.2°F-2.1°C 25.2°F-3.8°C 88% 2.0 mph NNE3.2 kmh NNE 7.0 mph11.3 kmh 30.08 in1018.6 mb 0.00 in0.0 mm 0.00 in0.0 mm 0.00 in0.0 mm
04:06 AM 28.3°F-2.1°C 25.2°F-3.8°C 88% 2.0 mph N3.2 kmh N 8.0 mph12.9 kmh 30.08 in1018.6 mb 0.00 in0.0 mm 0.00 in0.0 mm 0.00 in0.0 mm
04:01 AM 28.3°F-2.1°C 25.2°F-3.8°C 88% 2.0 mph NNW3.2 kmh NNW 8.0 mph12.9 kmh 30.08 in1018.6 mb 0.00 in0.0 mm 0.00 in0.0 mm 0.00 in0.0 mm
03:56 AM 28.4°F-2.0°C 25.3°F-3.7°C 88% 2.0 mph NNW3.2 kmh NNW 8.0 mph12.9 kmh 30.08 in1018.6 mb 0.00 in0.0 mm 0.00 in0.0 mm 0.00 in0.0 mm
03:51 AM 28.5°F-1.9°C 25.4°F-3.7°C 88% 2.0 mph NNE3.2 kmh NNE 8.0 mph12.9 kmh 30.08 in1018.6 mb 0.00 in0.0 mm 0.00 in0.0 mm 0.00 in0.0 mm
03:46 AM 28.5°F-1.9°C 25.4°F-3.7°C 88% 2.0 mph N3.2 kmh N 7.0 mph11.3 kmh 30.08 in1018.6 mb 0.00 in0.0 mm 0.00 in0.0 mm 0.00 in0.0 mm
03:41 AM 28.5°F-1.9°C 25.4°F-3.7°C 88% Calm Calm 8.0 mph12.9 kmh 30.08 in1018.6 mb 0.00 in0.0 mm 0.00 in0.0 mm 0.00 in0.0 mm
03:36 AM 28.5°F-1.9°C 25.4°F-3.7°C 88% 1.0 mph NNE1.6 kmh NNE 8.0 mph12.9 kmh 30.08 in1018.6 mb 0.00 in0.0 mm 0.00 in0.0 mm 0.00 in0.0 mm
03:31 AM 28.6°F-1.9°C 25.5°F-3.6°C 88% 4.0 mph NW6.4 kmh NW 8.0 mph12.9 kmh 30.08 in1018.6 mb 0.00 in0.0 mm 0.00 in0.0 mm 0.00 in0.0 mm
03:26 AM 28.6°F-1.9°C 25.5°F-3.6°C 88% 1.0 mph 1.6 kmh 8.0 mph12.9 kmh 30.08 in1018.6 mb 0.00 in0.0 mm 0.00 in0.0 mm 0.00 in0.0 mm
03:21 AM 28.6°F-1.9°C 25.5°F-3.6°C 88% 1.0 mph N1.6 kmh N 7.0 mph11.3 kmh 30.07 in1018.3 mb 0.00 in0.0 mm 0.00 in0.0 mm 0.00 in0.0 mm
03:16 AM 28.6°F-1.9°C 25.5°F-3.6°C 88% 1.0 mph NNW1.6 kmh NNW 7.0 mph11.3 kmh 30.07 in1018.3 mb 0.00 in0.0 mm 0.00 in0.0 mm 0.00 in0.0 mm
03:11 AM 28.6°F-1.9°C 25.5°F-3.6°C 88% 1.0 mph NNW1.6 kmh NNW 7.0 mph11.3 kmh 30.07 in1018.3 mb 0.00 in0.0 mm 0.00 in0.0 mm 0.00 in0.0 mm
03:06 AM 28.7°F-1.8°C 25.6°F-3.6°C 88% 1.0 mph N1.6 kmh N 7.0 mph11.3 kmh 30.07 in1018.3 mb 0.00 in0.0 mm 0.00 in0.0 mm 0.00 in0.0 mm
03:01 AM 28.8°F-1.8°C 25.7°F-3.5°C 88% 2.0 mph NW3.2 kmh NW 7.0 mph11.3 kmh 30.07 in1018.3 mb 0.00 in0.0 mm 0.00 in0.0 mm 0.00 in0.0 mm
02:56 AM 28.9°F-1.7°C 25.8°F-3.4°C 88% 3.0 mph NW4.8 kmh NW 8.0 mph12.9 kmh 30.07 in1018.3 mb 0.00 in0.0 mm 0.00 in0.0 mm 0.00 in0.0 mm
02:51 AM 28.9°F-1.7°C 25.8°F-3.4°C 88% 3.0 mph NE4.8 kmh NE 8.0 mph12.9 kmh 30.07 in1018.3 mb 0.00 in0.0 mm 0.00 in0.0 mm 0.00 in0.0 mm
02:46 AM 29.0°F-1.7°C 25.9°F-3.4°C 88% 4.0 mph NW6.4 kmh NW 10.0 mph16.1 kmh 30.07 in1018.3 mb 0.00 in0.0 mm 0.00 in0.0 mm 0.00 in0.0 mm
02:41 AM 29.0°F-1.7°C 25.9°F-3.4°C 88% 2.0 mph NNE3.2 kmh NNE 10.0 mph16.1 kmh 30.07 in1018.3 mb 0.00 in0.0 mm 0.00 in0.0 mm 0.00 in0.0 mm
02:36 AM 29.0°F-1.7°C 25.9°F-3.4°C 88% 1.0 mph NNE1.6 kmh NNE 10.0 mph16.1 kmh 30.07 in1018.3 mb 0.00 in0.0 mm 0.00 in0.0 mm 0.00 in0.0 mm
02:31 AM 29.0°F-1.7°C 25.9°F-3.4°C 88% 5.0 mph 8.0 kmh 10.0 mph16.1 kmh 30.07 in1018.3 mb 0.00 in0.0 mm 0.00 in0.0 mm 0.00 in0.0 mm
02:26 AM 29.0°F-1.7°C 25.9°F-3.4°C 88% Calm Calm 8.0 mph12.9 kmh 30.07 in1018.3 mb 0.00 in0.0 mm 0.00 in0.0 mm 0.00 in0.0 mm
02:21 AM 29.1°F-1.6°C 26.0°F-3.3°C 88% 2.0 mph N3.2 kmh N 8.0 mph12.9 kmh 30.07 in1018.3 mb 0.00 in0.0 mm 0.00 in0.0 mm 0.00 in0.0 mm
02:16 AM 29.1°F-1.6°C 26.0°F-3.3°C 88% 5.0 mph N8.0 kmh N 8.0 mph12.9 kmh 30.07 in1018.3 mb 0.00 in0.0 mm 0.00 in0.0 mm 0.00 in0.0 mm
02:11 AM 29.1°F-1.6°C 26.0°F-3.3°C 88% 3.0 mph NNE4.8 kmh NNE 6.0 mph9.7 kmh 30.07 in1018.3 mb 0.00 in0.0 mm 0.00 in0.0 mm 0.00 in0.0 mm
02:06 AM 29.1°F-1.6°C 26.0°F-3.3°C 88% 1.0 mph NNW1.6 kmh NNW 6.0 mph9.7 kmh 30.07 in1018.3 mb 0.00 in0.0 mm 0.00 in0.0 mm 0.00 in0.0 mm
02:01 AM 29.2°F-1.6°C 26.1°F-3.3°C 88% 4.0 mph NNW6.4 kmh NNW 8.0 mph12.9 kmh 30.06 in1017.9 mb 0.00 in0.0 mm 0.00 in0.0 mm 0.00 in0.0 mm
01:56 AM 29.3°F-1.5°C 26.2°F-3.2°C 88% 3.0 mph 4.8 kmh 8.0 mph12.9 kmh 30.06 in1017.9 mb 0.00 in0.0 mm 0.00 in0.0 mm 0.00 in0.0 mm
01:51 AM 29.3°F-1.5°C 26.2°F-3.2°C 88% 4.0 mph NE6.4 kmh NE 11.0 mph17.7 kmh 30.06 in1017.9 mb 0.00 in0.0 mm 0.00 in0.0 mm 0.00 in0.0 mm
01:46 AM 29.4°F-1.4°C 26.3°F-3.2°C 88% Calm Calm 11.0 mph17.7 kmh 30.06 in1017.9 mb 0.00 in0.0 mm 0.00 in0.0 mm 0.00 in0.0 mm
01:41 AM 29.5°F-1.4°C 26.4°F-3.1°C 88% 4.0 mph N6.4 kmh N 11.0 mph17.7 kmh 30.06 in1017.9 mb 0.00 in0.0 mm 0.00 in0.0 mm 0.00 in0.0 mm
01:36 AM 29.6°F-1.3°C 26.5°F-3.1°C 88% 1.0 mph N1.6 kmh N 11.0 mph17.7 kmh 30.06 in1017.9 mb 0.00 in0.0 mm 0.00 in0.0 mm 0.00 in0.0 mm
01:31 AM 29.7°F-1.3°C 26.6°F-3.0°C 88% 5.0 mph N8.0 kmh N 8.0 mph12.9 kmh 30.06 in1017.9 mb 0.00 in0.0 mm 0.00 in0.0 mm 0.00 in0.0 mm
01:26 AM 29.9°F-1.2°C 26.8°F-2.9°C 88% 2.0 mph N3.2 kmh N 8.0 mph12.9 kmh 30.06 in1017.9 mb 0.00 in0.0 mm 0.00 in0.0 mm 0.00 in0.0 mm
01:21 AM 30.0°F-1.1°C 26.9°F-2.8°C 88% 2.0 mph NE3.2 kmh NE 8.0 mph12.9 kmh 30.05 in1017.6 mb 0.00 in0.0 mm 0.00 in0.0 mm 0.00 in0.0 mm
01:16 AM 30.2°F-1.0°C 27.1°F-2.7°C 88% 2.0 mph WSW3.2 kmh WSW 13.0 mph20.9 kmh 30.05 in1017.6 mb 0.00 in0.0 mm 0.00 in0.0 mm 0.00 in0.0 mm
01:11 AM 30.4°F-0.9°C 27.3°F-2.6°C 88% 2.0 mph NW3.2 kmh NW 13.0 mph20.9 kmh 30.05 in1017.6 mb 0.00 in0.0 mm 0.00 in0.0 mm 0.00 in0.0 mm
01:06 AM 30.6°F-0.8°C 27.5°F-2.5°C 88% 6.0 mph N9.7 kmh N 13.0 mph20.9 kmh 30.05 in1017.6 mb 0.00 in0.0 mm 0.00 in0.0 mm 0.00 in0.0 mm
01:01 AM 30.7°F-0.7°C 27.6°F-2.4°C 88% 1.0 mph NNW1.6 kmh NNW 13.0 mph20.9 kmh 30.05 in1017.6 mb 0.00 in0.0 mm 0.00 in0.0 mm 0.00 in0.0 mm
12:56 AM 30.8°F-0.7°C 27.7°F-2.4°C 88% 2.0 mph 3.2 kmh 10.0 mph16.1 kmh 30.04 in1017.3 mb 0.00 in0.0 mm 0.00 in0.0 mm 0.00 in0.0 mm
12:51 AM 30.9°F-0.6°C 27.8°F-2.3°C 88% 1.0 mph N1.6 kmh N 12.0 mph19.3 kmh 30.04 in1017.3 mb 0.00 in0.0 mm 0.00 in0.0 mm 0.00 in0.0 mm
12:46 AM 31.0°F-0.6°C 27.9°F-2.3°C 88% 4.0 mph N6.4 kmh N 12.0 mph19.3 kmh 30.04 in1017.3 mb 0.00 in0.0 mm 0.00 in0.0 mm 0.00 in0.0 mm
12:41 AM 31.1°F-0.5°C 28.0°F-2.2°C 88% 1.0 mph NNW1.6 kmh NNW 12.0 mph19.3 kmh 30.03 in1016.9 mb 0.00 in0.0 mm 0.00 in0.0 mm 0.00 in0.0 mm
12:36 AM 31.2°F-0.4°C 28.1°F-2.2°C 88% 8.0 mph N12.9 kmh N 12.0 mph19.3 kmh 30.03 in1016.9 mb 0.00 in0.0 mm 0.00 in0.0 mm 0.00 in0.0 mm
12:31 AM 31.3°F-0.4°C 28.2°F-2.1°C 88% 4.0 mph NNW6.4 kmh NNW 13.0 mph20.9 kmh 30.03 in1016.9 mb 0.00 in0.0 mm 0.00 in0.0 mm 0.00 in0.0 mm
12:26 AM 31.4°F-0.3°C 28.3°F-2.1°C 88% 10.0 mph N16.1 kmh N 13.0 mph20.9 kmh 30.03 in1016.9 mb 0.00 in0.0 mm 0.00 in0.0 mm 0.00 in0.0 mm
12:21 AM 31.5°F-0.3°C 28.4°F-2.0°C 88% 6.0 mph N9.7 kmh N 13.0 mph20.9 kmh 30.03 in1016.9 mb 0.00 in0.0 mm 0.00 in0.0 mm 0.00 in0.0 mm
12:16 AM 31.6°F-0.2°C 28.5°F-1.9°C 88% 3.0 mph NNW4.8 kmh NNW 13.0 mph20.9 kmh 30.03 in1016.9 mb 0.00 in0.0 mm 0.00 in0.0 mm 0.00 in0.0 mm
12:11 AM 31.7°F-0.2°C 28.6°F-1.9°C 88% 4.0 mph N6.4 kmh N 11.0 mph17.7 kmh 30.03 in1016.9 mb 0.00 in0.0 mm 0.00 in0.0 mm 0.00 in0.0 mm
12:06 AM 31.7°F-0.2°C 28.6°F-1.9°C 88% 1.0 mph N1.6 kmh N 11.0 mph17.7 kmh 30.03 in1016.9 mb 0.00 in0.0 mm 0.00 in0.0 mm 0.00 in0.0 mm
12:01 AM 31.7°F-0.2°C 28.6°F-1.9°C 88% 6.0 mph N9.7 kmh N 11.0 mph17.7 kmh 30.02 in1016.6 mb 0.00 in0.0 mm 0.00 in0.0 mm 0.00 in0.0 mm